Time;durP1;ratioP1;P1;durP2;ratioP2;P2;SDS_P1;SDS_P2;PMS_P1;PMS_P2;Temp;Humidity;BMP_temperature;BMP_pressure;BME280_temperature;BME280_humidity;BME280_pressure;Samples;Min_cycle;Max_cycle;Signal;HPM_P1;HPM_P2
2023/10/05 00:03:43;;;;;;;9.38;4.80;;;;;;;;;;5033677;28;20049;-84
2023/10/05 00:06:15;;;;;;;10.93;4.72;;;;;;;;;;5036575;28;20105;-84
2023/10/05 00:08:50;;;;;;;9.18;5.00;;;;;;;;;;5031354;28;20050;-84
2023/10/05 00:11:30;;;;;;;9.25;4.93;;;;;;;;;;5029405;28;20052;-84
2023/10/05 00:14:04;;;;;;;12.43;4.82;;;;;;;;;;5045958;28;20049;-83
2023/10/05 00:16:37;;;;;;;7.13;4.53;;;;;;;;;;5045208;28;20074;-84
2023/10/05 00:19:09;;;;;;;;;;;;;;;;;;5039266;28;20046;-84
2023/10/05 00:21:43;;;;;;;8.15;4.55;;;;;;;;;;5042345;28;20012;-84
2023/10/05 00:24:11;;;;;;;11.00;4.32;;;;;;;;;;5043174;28;20050;-84
2023/10/05 00:26:39;;;;;;;5.47;3.95;;;;;;;;;;5043924;28;20407;-84
2023/10/05 00:29:18;;;;;;;6.93;3.80;;;;;;;;;;5045121;28;20050;-85
2023/10/05 00:31:49;;;;;;;8.60;3.92;;;;;;;;;;5046987;28;20053;-84
2023/10/05 00:34:27;;;;;;;10.63;4.72;;;;;;;;;;5031165;28;20184;-85
2023/10/05 00:36:59;;;;;;;6.25;4.25;;;;;;;;;;5049041;28;20049;-84
2023/10/05 00:39:29;;;;;;;7.65;4.18;;;;;;;;;;5037710;28;20058;-85
2023/10/05 00:44:32;;;;;;;7.40;4.30;;;;;;;;;;5043880;28;20064;-85
2023/10/05 00:47:00;;;;;;;6.93;4.70;;;;;;;;;;5050423;28;20052;-85
2023/10/05 00:49:29;;;;;;;9.57;4.68;;;;;;;;;;5044745;28;20125;-84
2023/10/05 00:52:13;;;;;;;11.57;4.78;;;;;;;;;;5052387;28;20057;-85
2023/10/05 00:54:41;;;;;;;8.02;4.82;;;;;;;;;;5047465;28;20057;-85
2023/10/05 00:57:14;;;;;;;8.18;4.72;;;;;;;;;;5043616;28;20041;-86
2023/10/05 00:59:46;;;;;;;9.32;5.07;;;;;;;;;;5042445;28;20073;-85
2023/10/05 01:02:21;;;;;;;11.73;4.63;;;;;;;;;;5051864;28;20045;-85
2023/10/05 01:04:55;;;;;;;8.82;4.97;;;;;;;;;;5051164;28;20056;-87
2023/10/05 01:07:28;;;;;;;8.18;4.88;;;;;;;;;;5040685;28;20093;-87
2023/10/05 01:14:59;;;;;;;7.57;4.43;;;;;;;;;;5037639;28;20057;-84
2023/10/05 01:17:27;;;;;;;9.00;4.63;;;;;;;;;;5043036;28;20049;-84
2023/10/05 01:19:59;;;;;;;7.65;5.30;;;;;;;;;;5042975;28;20114;-84
2023/10/05 01:22:33;;;;;;;6.53;4.80;;;;;;;;;;5038537;28;20057;-84
2023/10/05 01:25:02;;;;;;;8.13;5.28;;;;;;;;;;5034621;28;20117;-85
2023/10/05 01:27:32;;;;;;;10.68;4.90;;;;;;;;;;5043592;28;20081;-84
2023/10/05 01:30:00;;;;;;;9.00;4.82;;;;;;;;;;5044413;28;20076;-85
2023/10/05 01:32:27;;;;;;;13.30;5.05;;;;;;;;;;5038822;28;20075;-84
2023/10/05 01:34:55;;;;;;;8.75;4.70;;;;;;;;;;5028957;28;20050;-85
2023/10/05 01:37:23;;;;;;;10.48;4.30;;;;;;;;;;5027969;28;20457;-85
2023/10/05 01:39:51;;;;;;;10.40;4.55;;;;;;;;;;5028511;28;20053;-85
2023/10/05 01:42:18;;;;;;;7.20;4.43;;;;;;;;;;5032626;28;20053;-85
2023/10/05 01:44:49;;;;;;;8.00;4.53;;;;;;;;;;5025674;28;20049;-83
2023/10/05 01:47:17;;;;;;;5.15;4.55;;;;;;;;;;5034301;28;20055;-85
2023/10/05 01:49:45;;;;;;;14.10;4.70;;;;;;;;;;5028231;28;20056;-85
2023/10/05 01:52:20;;;;;;;7.38;4.35;;;;;;;;;;5031512;28;20077;-85
2023/10/05 01:54:48;;;;;;;9.60;4.95;;;;;;;;;;5031488;28;20407;-85
2023/10/05 01:57:16;;;;;;;7.28;4.18;;;;;;;;;;5031328;28;20057;-85
2023/10/05 01:59:44;;;;;;;6.93;4.47;;;;;;;;;;5032830;28;20495;-85
2023/10/05 02:02:12;;;;;;;9.88;4.53;;;;;;;;;;5027958;28;20069;-86
2023/10/05 02:04:43;;;;;;;11.40;4.78;;;;;;;;;;5034120;28;20096;-85
2023/10/05 02:07:11;;;;;;;10.98;5.68;;;;;;;;;;5039731;28;20053;-85
2023/10/05 02:09:39;;;;;;;9.13;5.05;;;;;;;;;;5030487;28;20132;-85
2023/10/05 02:12:06;;;;;;;11.65;4.95;;;;;;;;;;5038896;28;20436;-84
2023/10/05 02:14:38;;;;;;;10.60;5.43;;;;;;;;;;5026201;28;20053;-85
2023/10/05 02:17:07;;;;;;;6.78;4.63;;;;;;;;;;5038906;28;20078;-85
2023/10/05 02:19:38;;;;;;;8.30;4.55;;;;;;;;;;5039250;28;20118;-85
2023/10/05 02:22:11;;;;;;;8.82;4.95;;;;;;;;;;5038695;28;20104;-84
2023/10/05 02:24:40;;;;;;;11.50;4.68;;;;;;;;;;5038791;28;20045;-85
2023/10/05 02:27:11;;;;;;;12.13;4.70;;;;;;;;;;5035263;28;20137;-85
2023/10/05 02:29:43;;;;;;;8.65;4.68;;;;;;;;;;5032599;28;20513;-85
2023/10/05 02:32:21;;;;;;;8.98;4.85;;;;;;;;;;5029234;28;20053;-84
2023/10/05 02:34:59;;;;;;;8.23;4.80;;;;;;;;;;5031178;28;20511;-84
2023/10/05 02:37:36;;;;;;;10.32;5.15;;;;;;;;;;5027714;28;20064;-84
2023/10/05 02:40:08;;;;;;;6.80;4.38;;;;;;;;;;5028047;28;20515;-85
2023/10/05 02:42:36;;;;;;;8.68;5.03;;;;;;;;;;5032980;28;20053;-85
2023/10/05 02:45:04;;;;;;;7.55;4.25;;;;;;;;;;5034960;28;20120;-85
2023/10/05 02:47:33;;;;;;;8.50;4.50;;;;;;;;;;5034538;28;20424;-85
2023/10/05 02:50:00;;;;;;;8.18;5.03;;;;;;;;;;5028759;28;20058;-85
2023/10/05 02:52:32;;;;;;;11.77;4.70;;;;;;;;;;5034671;28;20542;-85
2023/10/05 02:54:59;;;;;;;8.80;5.07;;;;;;;;;;5034946;28;20064;-85
2023/10/05 02:57:27;;;;;;;10.13;4.45;;;;;;;;;;5029397;28;20414;-85
2023/10/05 02:59:54;;;;;;;7.15;4.65;;;;;;;;;;5038175;28;20060;-85
2023/10/05 03:02:23;;;;;;;12.73;4.85;;;;;;;;;;5037270;28;20049;-85
2023/10/05 03:04:59;;;;;;;13.95;5.47;;;;;;;;;;5031141;28;20427;-85
2023/10/05 03:07:26;;;;;;;8.10;4.47;;;;;;;;;;5034779;28;20089;-85
2023/10/05 03:09:59;;;;;;;18.15;6.13;;;;;;;;;;5041332;28;20514;-85
2023/10/05 03:12:27;;;;;;;6.30;4.50;;;;;;;;;;5038227;28;20045;-85
2023/10/05 03:14:56;;;;;;;11.73;5.43;;;;;;;;;;5042483;28;20095;-85
2023/10/05 03:17:26;;;;;;;8.10;5.13;;;;;;;;;;5030909;28;20053;-85
2023/10/05 03:19:54;;;;;;;10.20;5.55;;;;;;;;;;5030541;28;20060;-85
2023/10/05 03:22:23;;;;;;;19.15;5.40;;;;;;;;;;5030839;28;20100;-85
2023/10/05 03:24:53;;;;;;;13.40;5.03;;;;;;;;;;5041208;28;20057;-85
2023/10/05 03:27:22;;;;;;;14.02;4.80;;;;;;;;;;5039129;28;20077;-85
2023/10/05 03:29:52;;;;;;;12.75;4.97;;;;;;;;;;5041389;28;20057;-85
2023/10/05 03:32:21;;;;;;;7.40;4.57;;;;;;;;;;5036201;28;20085;-85
2023/10/05 03:34:56;;;;;;;9.40;4.80;;;;;;;;;;5035307;28;20046;-85
2023/10/05 03:37:24;;;;;;;8.07;4.63;;;;;;;;;;5036804;28;20470;-85
2023/10/05 03:40:43;;;;;;;6.72;4.85;;;;;;;;;;5028402;28;20072;-85
2023/10/05 03:42:46;;;;;;;11.35;4.68;;;;;;;;;;5023012;28;20046;-86
2023/10/05 03:45:16;;;;;;;6.50;4.70;;;;;;;;;;5040858;28;20415;-85
2023/10/05 03:47:44;;;;;;;9.73;4.80;;;;;;;;;;5033137;28;20049;-83
2023/10/05 03:50:18;;;;;;;9.75;5.03;;;;;;;;;;5042008;28;20132;-86
2023/10/05 03:52:47;;;;;;;10.93;4.75;;;;;;;;;;5027002;28;20053;-85
2023/10/05 03:55:20;;;;;;;9.25;5.47;;;;;;;;;;5039569;28;20050;-85
2023/10/05 03:57:49;;;;;;;;;;;;;;;;;;5042950;28;20449;-85
2023/10/05 04:02:53;;;;;;;12.52;5.60;;;;;;;;;;5051946;28;20054;-83
2023/10/05 04:05:22;;;;;;;10.82;4.70;;;;;;;;;;5042485;28;20033;-82
2023/10/05 04:07:52;;;;;;;7.18;4.65;;;;;;;;;;5031824;28;20103;-85
2023/10/05 04:10:45;;;;;;;8.50;4.95;;;;;;;;;;5039081;28;20053;-85
2023/10/05 04:13:17;;;;;;;10.52;5.15;;;;;;;;;;5031941;28;20060;-85
2023/10/05 04:15:45;;;;;;;14.20;5.70;;;;;;;;;;5035306;28;20053;-85
2023/10/05 04:18:16;;;;;;;8.38;4.75;;;;;;;;;;5042554;28;20068;-85
2023/10/05 04:20:43;;;;;;;8.82;4.72;;;;;;;;;;5039812;28;20056;-86
2023/10/05 04:23:16;;;;;;;12.25;5.00;;;;;;;;;;5031219;28;20049;-85
2023/10/05 04:25:44;;;;;;;8.65;5.47;;;;;;;;;;5032844;28;20411;-86
2023/10/05 04:35:22;;;;;;;11.98;5.10;;;;;;;;;;5021666;23;20029;-91
2023/10/05 04:37:50;;;;;;;14.13;5.47;;;;;;;;;;5034168;28;20064;-91
2023/10/05 04:40:20;;;;;;;11.40;5.38;;;;;;;;;;5024457;28;20049;-90
2023/10/05 04:42:47;;;;;;;13.43;5.63;;;;;;;;;;5025007;28;20087;-91
2023/10/05 04:45:14;;;;;;;11.13;5.20;;;;;;;;;;5022675;28;20049;-91
2023/10/05 04:47:42;;;;;;;15.07;5.75;;;;;;;;;;5021251;28;20482;-90
2023/10/05 04:50:15;;;;;;;22.17;7.15;;;;;;;;;;5022846;28;20089;-91
2023/10/05 04:52:45;;;;;;;14.02;6.30;;;;;;;;;;5024803;28;20055;-90
2023/10/05 04:55:22;;;;;;;11.68;5.68;;;;;;;;;;5024589;28;20060;-91
2023/10/05 04:57:54;;;;;;;9.48;5.60;;;;;;;;;;5024556;28;20092;-90
2023/10/05 05:08:34;;;;;;;9.43;5.40;;;;;;;;;;5021875;28;20058;-90
2023/10/05 05:11:03;;;;;;;10.02;5.00;;;;;;;;;;5021437;28;20564;-90
2023/10/05 05:13:30;;;;;;;8.40;5.18;;;;;;;;;;5025522;28;20053;-90
2023/10/05 05:15:57;;;;;;;11.15;5.95;;;;;;;;;;5024140;28;20047;-90
2023/10/05 05:18:25;;;;;;;8.10;4.90;;;;;;;;;;5021490;28;20056;-90
2023/10/05 05:20:53;;;;;;;13.65;5.60;;;;;;;;;;5021011;28;20050;-90
2023/10/05 05:23:21;;;;;;;19.88;7.20;;;;;;;;;;5025127;28;20142;-90
2023/10/05 05:25:51;;;;;;;12.85;5.90;;;;;;;;;;5027182;28;20049;-90
2023/10/05 05:28:19;;;;;;;9.50;5.47;;;;;;;;;;5028614;28;20111;-90
2023/10/05 05:30:47;;;;;;;34.92;7.53;;;;;;;;;;5028329;28;20045;-90
2023/10/05 05:33:17;;;;;;;20.15;6.65;;;;;;;;;;5028190;28;20410;-90
2023/10/05 05:35:45;;;;;;;12.60;6.05;;;;;;;;;;5027903;28;20057;-90
2023/10/05 05:38:13;;;;;;;15.43;6.53;;;;;;;;;;5028733;28;20050;-91
2023/10/05 05:40:40;;;;;;;13.75;6.05;;;;;;;;;;5030594;28;20137;-92
2023/10/05 05:43:09;;;;;;;16.77;6.45;;;;;;;;;;5025971;28;20046;-94
2023/10/05 05:45:42;;;;;;;17.15;6.03;;;;;;;;;;5028543;28;20057;-93
2023/10/05 05:48:13;;;;;;;15.00;6.03;;;;;;;;;;5027069;28;20045;-92
2023/10/05 05:50:42;;;;;;;10.07;5.38;;;;;;;;;;5026858;28;20512;-93
2023/10/05 05:53:14;;;;;;;10.07;4.80;;;;;;;;;;5029065;28;20053;-92
2023/10/05 05:55:44;;;;;;;11.82;6.00;;;;;;;;;;5030673;28;20046;-92
2023/10/05 05:58:16;;;;;;;26.48;6.68;;;;;;;;;;5035529;28;20053;-92
2023/10/05 06:00:47;;;;;;;17.77;5.97;;;;;;;;;;5025147;28;20053;-91
2023/10/05 06:03:16;;;;;;;20.00;6.35;;;;;;;;;;5030327;28;20495;-91
2023/10/05 06:05:43;;;;;;;28.13;7.38;;;;;;;;;;5030142;28;20551;-92
2023/10/05 06:08:12;;;;;;;13.48;5.80;;;;;;;;;;5028677;28;20100;-92
2023/10/05 06:10:43;;;;;;;26.70;7.43;;;;;;;;;;5030051;28;20077;-91
2023/10/05 06:13:11;;;;;;;18.48;7.30;;;;;;;;;;5032431;28;20061;-91
2023/10/05 06:15:39;;;;;;;18.92;7.05;;;;;;;;;;5027533;28;20517;-92
2023/10/05 06:18:07;;;;;;;11.55;6.43;;;;;;;;;;5025463;28;20049;-91
2023/10/05 06:20:35;;;;;;;15.38;6.15;;;;;;;;;;5023905;28;20053;-91
2023/10/05 06:23:02;;;;;;;20.70;6.47;;;;;;;;;;5023994;28;20050;-91
2023/10/05 06:25:31;;;;;;;18.92;6.47;;;;;;;;;;5023435;28;20054;-91
2023/10/05 06:27:59;;;;;;;45.95;9.30;;;;;;;;;;5023860;28;20072;-92
2023/10/05 06:30:26;;;;;;;13.90;6.35;;;;;;;;;;5026633;28;20065;-91
2023/10/05 06:32:54;;;;;;;10.15;5.70;;;;;;;;;;5027352;28;20107;-91
2023/10/05 06:35:22;;;;;;;15.07;6.03;;;;;;;;;;5026647;28;20049;-91
2023/10/05 06:37:49;;;;;;;14.05;5.57;;;;;;;;;;5027009;28;20111;-91
2023/10/05 06:40:21;;;;;;;11.98;6.07;;;;;;;;;;5025637;28;20050;-90
2023/10/05 06:42:49;;;;;;;22.27;7.07;;;;;;;;;;5026698;28;20046;-90
2023/10/05 06:45:19;;;;;;;21.55;7.10;;;;;;;;;;5025005;28;20066;-90
2023/10/05 06:47:48;;;;;;;26.45;7.90;;;;;;;;;;5027176;28;20077;-90
2023/10/05 06:50:16;;;;;;;23.77;8.40;;;;;;;;;;5030293;28;20414;-90
2023/10/05 06:52:47;;;;;;;17.42;6.70;;;;;;;;;;5043004;28;20103;-91
2023/10/05 06:55:29;;;;;;;15.80;7.07;;;;;;;;;;5031180;28;20464;-90
2023/10/05 06:57:56;;;;;;;195.77;97.10;;;;;;;;;;5035251;28;20057;-91
2023/10/05 07:00:26;;;;;;;75.78;43.75;;;;;;;;;;5035578;28;20064;-90
2023/10/05 07:02:54;;;;;;;47.78;23.92;;;;;;;;;;5024286;28;20057;-90
2023/10/05 07:05:22;;;;;;;19.02;9.82;;;;;;;;;;5022670;28;20474;-90
2023/10/05 07:07:49;;;;;;;24.73;10.35;;;;;;;;;;5027294;28;20049;-89
2023/10/05 07:10:19;;;;;;;27.55;7.78;;;;;;;;;;5025275;28;20050;-90
2023/10/05 07:12:46;;;;;;;23.88;6.50;;;;;;;;;;5026611;28;20065;-90
2023/10/05 07:15:15;;;;;;;26.73;7.70;;;;;;;;;;5034169;28;20082;-89
2023/10/05 07:17:43;;;;;;;27.13;9.50;;;;;;;;;;5033445;28;20096;-89
2023/10/05 07:20:16;;;;;;;22.38;8.00;;;;;;;;;;5025809;28;20066;-89
2023/10/05 07:22:44;;;;;;;45.05;11.27;;;;;;;;;;5026119;28;20478;-89
2023/10/05 07:25:12;;;;;;;32.90;9.60;;;;;;;;;;5025223;28;20049;-89
2023/10/05 07:27:41;;;;;;;28.63;8.68;;;;;;;;;;5028319;28;20050;-89
2023/10/05 07:30:12;;;;;;;25.50;9.00;;;;;;;;;;5024001;28;20125;-88
2023/10/05 07:32:40;;;;;;;26.48;8.32;;;;;;;;;;5025664;28;20170;-89
2023/10/05 07:35:12;;;;;;;25.77;7.13;;;;;;;;;;5023582;28;20051;-89
2023/10/05 07:37:41;;;;;;;14.30;6.63;;;;;;;;;;5022445;28;20050;-89
2023/10/05 07:40:09;;;;;;;15.10;5.45;;;;;;;;;;5021977;28;20549;-89
2023/10/05 07:42:39;;;;;;;15.02;5.57;;;;;;;;;;5025440;28;20053;-89
2023/10/05 07:45:07;;;;;;;13.32;4.78;;;;;;;;;;5023835;28;20103;-90
2023/10/05 07:47:41;;;;;;;13.02;5.45;;;;;;;;;;5021358;28;20093;-89
2023/10/05 07:50:12;;;;;;;9.27;4.82;;;;;;;;;;5022862;28;20050;-89
2023/10/05 07:52:40;;;;;;;10.30;4.63;;;;;;;;;;5025387;28;20046;-88
2023/10/05 07:55:08;;;;;;;6.18;3.95;;;;;;;;;;5023201;28;20056;-90
2023/10/05 07:57:35;;;;;;;7.50;3.88;;;;;;;;;;5021795;28;20060;-88
2023/10/05 08:00:03;;;;;;;10.50;3.92;;;;;;;;;;5022625;28;20050;-89
2023/10/05 08:02:31;;;;;;;12.45;4.40;;;;;;;;;;5025271;28;20096;-89
2023/10/05 08:04:58;;;;;;;11.23;4.10;;;;;;;;;;5033162;28;20478;-90
2023/10/05 08:07:26;;;;;;;14.07;3.75;;;;;;;;;;5024556;28;20478;-88
2023/10/05 08:09:55;;;;;;;10.95;3.78;;;;;;;;;;5024881;28;20084;-89
2023/10/05 08:12:23;;;;;;;8.07;3.22;;;;;;;;;;5021466;28;20100;-90
2023/10/05 08:14:51;;;;;;;11.05;3.05;;;;;;;;;;5029120;28;20111;-90
2023/10/05 08:17:20;;;;;;;23.70;4.28;;;;;;;;;;5024365;28;20410;-91
2023/10/05 08:19:47;;;;;;;11.70;2.63;;;;;;;;;;5025509;28;20391;-90
2023/10/05 08:22:17;;;;;;;6.68;2.50;;;;;;;;;;5022209;28;20048;-90
2023/10/05 08:24:45;;;;;;;6.72;2.30;;;;;;;;;;5021255;28;20050;-90
2023/10/05 08:27:14;;;;;;;5.22;1.88;;;;;;;;;;5022997;28;20053;-89
2023/10/05 08:29:42;;;;;;;6.35;2.25;;;;;;;;;;5025071;28;20053;-90
2023/10/05 08:32:13;;;;;;;5.40;1.85;;;;;;;;;;5032929;28;20045;-92
2023/10/05 08:34:41;;;;;;;6.40;2.10;;;;;;;;;;5027050;28;20056;-89
2023/10/05 08:37:11;;;;;;;5.50;2.38;;;;;;;;;;5022764;28;20057;-90
2023/10/05 08:39:39;;;;;;;2.97;1.63;;;;;;;;;;5027767;28;20054;-90
2023/10/05 08:42:06;;;;;;;6.45;1.60;;;;;;;;;;5022374;28;20050;-92
2023/10/05 08:44:44;;;;;;;3.25;1.58;;;;;;;;;;5028409;28;20054;-92
2023/10/05 08:47:13;;;;;;;5.68;1.85;;;;;;;;;;5023166;28;20548;-92
2023/10/05 08:49:43;;;;;;;7.97;2.20;;;;;;;;;;5025719;28;20559;-93
2023/10/05 08:52:20;;;;;;;5.22;1.73;;;;;;;;;;5024881;28;20473;-96
2023/10/05 08:54:48;;;;;;;4.10;1.50;;;;;;;;;;5028286;28;20054;-94
2023/10/05 08:57:18;;;;;;;4.90;1.92;;;;;;;;;;5033318;28;20045;-91
2023/10/05 08:59:45;;;;;;;11.40;2.30;;;;;;;;;;5034039;28;20080;-92
2023/10/05 09:02:18;;;;;;;7.88;2.22;;;;;;;;;;5027526;28;20410;-87
2023/10/05 09:04:57;;;;;;;5.70;1.80;;;;;;;;;;5029348;28;20477;-95
2023/10/05 09:07:37;;;;;;;3.72;1.67;;;;;;;;;;5029709;28;20483;-91
2023/10/05 09:10:05;;;;;;;7.07;1.80;;;;;;;;;;5030662;28;20483;-94
2023/10/05 09:12:37;;;;;;;3.35;1.60;;;;;;;;;;5024945;28;20050;-94
2023/10/05 09:15:05;;;;;;;3.55;1.58;;;;;;;;;;5025596;28;20486;-90
2023/10/05 09:17:34;;;;;;;2.75;1.67;;;;;;;;;;5023279;28;20089;-93
2023/10/05 09:20:23;;;;;;;7.53;2.03;;;;;;;;;;5024099;28;20056;-94
2023/10/05 09:22:55;;;;;;;4.88;1.80;;;;;;;;;;5026809;28;20498;-95
2023/10/05 09:25:27;;;;;;;3.97;1.73;;;;;;;;;;5021432;28;20410;-90
2023/10/05 09:27:57;;;;;;;5.07;1.60;;;;;;;;;;5029405;28;20148;-92
2023/10/05 09:30:29;;;;;;;6.75;2.05;;;;;;;;;;5022005;28;20072;-93
2023/10/05 09:33:25;;;;;;;4.45;2.10;;;;;;;;;;5014698;28;20073;-91
2023/10/05 09:35:55;;;;;;;4.93;2.00;;;;;;;;;;5020661;28;20107;-92
2023/10/05 09:38:23;;;;;;;2.88;1.70;;;;;;;;;;5021199;28;20077;-90
2023/10/05 09:40:53;;;;;;;6.35;1.95;;;;;;;;;;5025613;28;20054;-92
2023/10/05 09:43:23;;;;;;;6.05;1.88;;;;;;;;;;5025171;28;20494;-92
2023/10/05 09:45:54;;;;;;;5.57;1.88;;;;;;;;;;5023912;28;20076;-91
2023/10/05 09:48:22;;;;;;;3.88;1.88;;;;;;;;;;5020839;28;20054;-91
2023/10/05 09:50:50;;;;;;;5.10;1.88;;;;;;;;;;5020949;28;20053;-96
2023/10/05 09:53:43;;;;;;;3.88;1.70;;;;;;;;;;5027067;28;20044;-91
2023/10/05 09:56:14;;;;;;;4.28;2.00;;;;;;;;;;5022414;28;20054;-92
2023/10/05 09:58:47;;;;;;;4.20;1.88;;;;;;;;;;5032418;28;20132;-93
2023/10/05 10:01:20;;;;;;;18.15;2.38;;;;;;;;;;5023668;28;20058;-91
2023/10/05 10:03:52;;;;;;;4.15;1.70;;;;;;;;;;5024060;28;20456;-92
2023/10/05 10:06:20;;;;;;;4.57;1.83;;;;;;;;;;5021353;28;20410;-93
2023/10/05 10:08:55;;;;;;;5.68;2.17;;;;;;;;;;5020596;28;20074;-91
2023/10/05 10:11:32;;;;;;;6.25;1.80;;;;;;;;;;5030393;28;20132;-91
2023/10/05 10:14:01;;;;;;;;;;;;;;;;;;5036444;28;20374;-89
2023/10/05 10:16:29;;;;;;;9.75;2.17;;;;;;;;;;5026943;28;20370;-93
2023/10/05 10:19:06;;;;;;;5.22;2.00;;;;;;;;;;5024282;28;20573;-91
2023/10/05 10:21:46;;;;;;;8.65;2.35;;;;;;;;;;5024437;28;20049;-93
2023/10/05 10:24:17;;;;;;;9.40;2.30;;;;;;;;;;5032172;28;20061;-95
2023/10/05 10:26:45;;;;;;;15.73;2.42;;;;;;;;;;5024965;28;20049;-92
2023/10/05 10:29:16;;;;;;;8.00;1.90;;;;;;;;;;5024084;28;20632;-93
2023/10/05 10:31:47;;;;;;;18.73;3.08;;;;;;;;;;5030021;28;20481;-91
2023/10/05 10:34:28;;;;;;;3.28;1.63;;;;;;;;;;5025052;28;20060;-91
2023/10/05 10:36:56;;;;;;;7.40;2.35;;;;;;;;;;5031968;28;20132;-93
2023/10/05 10:39:33;;;;;;;7.03;1.98;;;;;;;;;;5027439;28;20513;-94
2023/10/05 10:42:04;;;;;;;3.00;1.73;;;;;;;;;;5026588;28;20076;-91
2023/10/05 10:44:56;;;;;;;6.50;2.17;;;;;;;;;;5023280;28;20525;-92
2023/10/05 10:47:22;;;;;;;11.82;2.00;;;;;;;;;;5032943;28;20104;-94
2023/10/05 10:50:14;;;;;;;12.90;2.17;;;;;;;;;;5028234;28;20129;-91
2023/10/05 10:52:43;;;;;;;8.95;1.80;;;;;;;;;;5023899;28;20120;-90
2023/10/05 10:55:14;;;;;;;3.17;1.83;;;;;;;;;;5031418;28;20060;-92
2023/10/05 10:57:47;;;;;;;5.43;1.83;;;;;;;;;;5029645;28;20561;-91
2023/10/05 11:03:11;;;;;;;5.80;2.08;;;;;;;;;;5028208;28;20069;-90
2023/10/05 11:05:39;;;;;;;4.47;2.13;;;;;;;;;;5030251;28;20046;-93
2023/10/05 11:08:08;;;;;;;8.02;1.90;;;;;;;;;;5031460;28;20046;-92
2023/10/05 11:10:35;;;;;;;4.10;2.15;;;;;;;;;;5026309;28;20050;-92
2023/10/05 11:13:14;;;;;;;2.72;1.70;;;;;;;;;;5025400;28;20522;-90
2023/10/05 11:15:57;;;;;;;8.52;1.92;;;;;;;;;;5024081;28;20057;-89
2023/10/05 11:18:34;;;;;;;6.07;2.17;;;;;;;;;;5034035;28;20050;-92
2023/10/05 11:21:12;;;;;;;3.33;1.90;;;;;;;;;;5023890;28;20050;-92
2023/10/05 11:23:47;;;;;;;9.98;2.08;;;;;;;;;;5025637;28;20099;-93
2023/10/05 11:26:19;;;;;;;6.07;1.88;;;;;;;;;;5026831;28;20049;-91
2023/10/05 11:28:52;;;;;;;4.53;1.77;;;;;;;;;;5028205;28;20053;-90
2023/10/05 11:31:23;;;;;;;5.70;2.10;;;;;;;;;;5028822;28;20049;-94
2023/10/05 11:34:12;;;;;;;3.38;2.05;;;;;;;;;;5019088;28;20532;-92
2023/10/05 11:37:01;;;;;;;7.53;2.00;;;;;;;;;;5026076;28;20160;-88
2023/10/05 11:39:35;;;;;;;3.60;1.65;;;;;;;;;;5023390;28;20049;-90
2023/10/05 11:42:03;;;;;;;;;;;;;;;;;;5032637;28;20172;-93
2023/10/05 11:44:30;;;;;;;4.45;2.00;;;;;;;;;;5035309;28;20640;-90
2023/10/05 11:47:00;;;;;;;4.25;1.80;;;;;;;;;;5031383;28;20340;-91
2023/10/05 11:49:31;;;;;;;6.57;1.80;;;;;;;;;;5040623;28;20509;-93
2023/10/05 11:52:00;;;;;;;4.22;1.95;;;;;;;;;;5035811;28;20118;-89
2023/10/05 11:54:31;;;;;;;4.22;2.13;;;;;;;;;;5024395;28;20141;-92
2023/10/05 11:57:04;;;;;;;3.50;1.98;;;;;;;;;;5028013;28;20058;-90
2023/10/05 11:59:35;;;;;;;9.07;2.00;;;;;;;;;;5025438;28;20045;-92
2023/10/05 12:02:08;;;;;;;3.88;1.98;;;;;;;;;;5024785;28;20057;-92
2023/10/05 12:04:39;;;;;;;5.70;1.90;;;;;;;;;;5023839;28;20052;-92
2023/10/05 12:07:08;;;;;;;5.22;1.88;;;;;;;;;;5032275;28;20050;-90
2023/10/05 12:09:36;;;;;;;1.73;1.45;;;;;;;;;;5025170;28;20048;-93
2023/10/05 12:12:05;;;;;;;3.35;1.70;;;;;;;;;;5023986;28;20055;-92
2023/10/05 12:14:32;;;;;;;4.75;1.75;;;;;;;;;;5022135;28;20184;-91
2023/10/05 12:17:00;;;;;;;5.25;1.67;;;;;;;;;;5022532;28;20058;-92
2023/10/05 12:19:27;;;;;;;4.65;2.13;;;;;;;;;;5025188;28;20049;-92
2023/10/05 12:21:56;;;;;;;5.35;2.10;;;;;;;;;;5024513;28;20057;-91
2023/10/05 12:24:26;;;;;;;7.82;2.00;;;;;;;;;;5024759;28;20059;-92
2023/10/05 12:26:59;;;;;;;4.95;1.80;;;;;;;;;;5033431;28;20052;-92
2023/10/05 12:29:29;;;;;;;6.80;2.10;;;;;;;;;;5029250;28;20050;-89
2023/10/05 12:32:06;;;;;;;5.90;2.10;;;;;;;;;;5021722;28;20487;-90
2023/10/05 12:34:35;;;;;;;3.67;1.70;;;;;;;;;;5026101;28;20549;-90
2023/10/05 12:37:08;;;;;;;5.60;2.00;;;;;;;;;;5023844;28;20104;-90
2023/10/05 12:39:35;;;;;;;3.25;1.80;;;;;;;;;;5022452;28;20046;-90
2023/10/05 12:42:04;;;;;;;5.25;1.90;;;;;;;;;;5029628;28;20049;-90
2023/10/05 12:44:32;;;;;;;6.95;2.10;;;;;;;;;;5020847;28;20100;-91
2023/10/05 12:47:00;;;;;;;5.63;1.70;;;;;;;;;;5029153;28;20049;-90
2023/10/05 12:49:27;;;;;;;3.97;2.00;;;;;;;;;;5022264;28;20451;-92
2023/10/05 12:51:56;;;;;;;4.70;1.80;;;;;;;;;;5024847;28;20057;-90
2023/10/05 12:54:29;;;;;;;4.25;2.08;;;;;;;;;;5021128;28;20101;-91
2023/10/05 12:56:57;;;;;;;10.20;2.60;;;;;;;;;;5021418;28;20100;-90
2023/10/05 12:59:44;;;;;;;15.00;2.63;;;;;;;;;;5021519;28;20507;-93
2023/10/05 13:02:17;;;;;;;3.25;1.92;;;;;;;;;;5029628;28;20054;-92
2023/10/05 13:04:45;;;;;;;3.88;1.65;;;;;;;;;;5021230;28;20053;-92
2023/10/05 13:07:16;;;;;;;5.43;2.13;;;;;;;;;;5023176;28;20085;-92
2023/10/05 13:09:44;;;;;;;8.13;2.40;;;;;;;;;;5024685;28;20049;-89
2023/10/05 13:12:16;;;;;;;3.80;1.77;;;;;;;;;;5024305;28;20103;-90
2023/10/05 13:14:43;;;;;;;6.32;2.20;;;;;;;;;;5024510;28;20048;-90
2023/10/05 13:17:12;;;;;;;3.47;1.80;;;;;;;;;;5022312;28;20490;-91
2023/10/05 13:19:41;;;;;;;4.35;2.03;;;;;;;;;;5020947;28;20061;-91
2023/10/05 13:22:11;;;;;;;3.13;1.80;;;;;;;;;;5021926;28;20069;-90
2023/10/05 13:24:40;;;;;;;9.13;1.98;;;;;;;;;;5026662;28;20046;-92
2023/10/05 13:27:08;;;;;;;5.75;1.80;;;;;;;;;;5022452;28;20050;-90
2023/10/05 13:29:42;;;;;;;7.72;2.10;;;;;;;;;;5024198;28;20057;-91
2023/10/05 13:32:12;;;;;;;7.00;1.95;;;;;;;;;;5022687;28;20053;-90
2023/10/05 13:34:45;;;;;;;6.05;2.03;;;;;;;;;;5020535;28;20050;-90
2023/10/05 13:37:13;;;;;;;3.75;1.77;;;;;;;;;;5029418;28;20061;-89
2023/10/05 13:39:44;;;;;;;3.65;1.67;;;;;;;;;;5024003;28;20058;-91
2023/10/05 13:42:25;;;;;;;4.10;2.08;;;;;;;;;;5021926;28;20041;-90
2023/10/05 13:44:54;;;;;;;4.90;1.80;;;;;;;;;;5020478;28;20065;-94
2023/10/05 13:47:24;;;;;;;5.30;1.80;;;;;;;;;;5031935;28;20053;-90
2023/10/05 13:50:08;;;;;;;5.28;1.80;;;;;;;;;;5025850;28;20046;-91
2023/10/05 13:52:38;;;;;;;3.25;1.77;;;;;;;;;;5028141;28;20057;-91
2023/10/05 13:55:07;;;;;;;3.67;1.77;;;;;;;;;;5026753;28;20080;-90
2023/10/05 13:57:37;;;;;;;4.78;1.80;;;;;;;;;;5024464;28;20049;-91
2023/10/05 14:00:06;;;;;;;9.60;1.92;;;;;;;;;;5024913;28;20050;-89
2023/10/05 14:02:33;;;;;;;7.38;2.38;;;;;;;;;;5027691;28;20493;-86
2023/10/05 14:05:01;;;;;;;15.23;2.97;;;;;;;;;;5027428;28;20105;-90
2023/10/05 14:07:28;;;;;;;6.53;2.22;;;;;;;;;;5027497;28;20073;-90
2023/10/05 14:09:56;;;;;;;6.03;2.10;;;;;;;;;;5027400;28;20508;-90
2023/10/05 14:12:23;;;;;;;6.22;1.95;;;;;;;;;;5024076;28;20058;-90
2023/10/05 14:14:50;;;;;;;8.18;2.60;;;;;;;;;;5023149;28;20119;-91
2023/10/05 14:17:18;;;;;;;4.88;2.03;;;;;;;;;;5027353;28;20498;-90
2023/10/05 14:19:45;;;;;;;4.63;1.88;;;;;;;;;;5029016;28;20050;-89
2023/10/05 14:22:12;;;;;;;4.30;2.00;;;;;;;;;;5031948;28;20077;-90
2023/10/05 14:24:41;;;;;;;6.00;2.50;;;;;;;;;;5023713;28;20414;-90
2023/10/05 14:27:08;;;;;;;6.82;1.83;;;;;;;;;;5031697;28;20046;-91
2023/10/05 14:29:36;;;;;;;13.18;2.20;;;;;;;;;;5026862;28;20053;-90
2023/10/05 14:32:04;;;;;;;3.30;1.52;;;;;;;;;;5026171;28;20422;-87
2023/10/05 14:34:33;;;;;;;8.88;2.05;;;;;;;;;;5024838;28;20050;-91
2023/10/05 14:37:05;;;;;;;4.38;1.70;;;;;;;;;;5025236;28;20124;-91
2023/10/05 14:39:33;;;;;;;4.68;1.95;;;;;;;;;;5042386;28;20050;-92
2023/10/05 14:42:01;;;;;;;7.43;2.03;;;;;;;;;;5036482;28;20383;-89
2023/10/05 14:44:28;;;;;;;7.43;2.30;;;;;;;;;;5030481;28;20075;-91
2023/10/05 14:47:03;;;;;;;7.25;2.40;;;;;;;;;;5027663;28;20053;-89
2023/10/05 14:49:31;;;;;;;12.90;2.17;;;;;;;;;;5023999;28;20070;-90
2023/10/05 14:51:59;;;;;;;5.32;2.25;;;;;;;;;;5034220;28;20058;-89
2023/10/05 14:54:26;;;;;;;4.13;2.00;;;;;;;;;;5023950;28;20483;-90
2023/10/05 14:56:55;;;;;;;10.15;2.35;;;;;;;;;;5022456;28;20058;-89
2023/10/05 14:59:23;;;;;;;8.88;2.30;;;;;;;;;;5026972;28;20046;-88
2023/10/05 15:01:50;;;;;;;12.05;2.30;;;;;;;;;;5026423;28;20049;-90
2023/10/05 15:04:19;;;;;;;4.82;2.00;;;;;;;;;;5025301;28;20049;-89
2023/10/05 15:06:47;;;;;;;8.13;2.22;;;;;;;;;;5026005;28;20076;-90
2023/10/05 15:09:20;;;;;;;7.13;1.88;;;;;;;;;;5023769;28;20053;-90
2023/10/05 15:11:48;;;;;;;;;;;;;;;;;;5023142;28;20418;-92
2023/10/05 15:14:16;;;;;;;6.03;2.20;;;;;;;;;;5031056;28;20368;-91
2023/10/05 15:16:44;;;;;;;7.68;2.42;;;;;;;;;;5022534;28;20395;-91
2023/10/05 15:19:11;;;;;;;4.05;2.15;;;;;;;;;;5031004;28;20053;-90
2023/10/05 15:21:40;;;;;;;5.40;2.30;;;;;;;;;;5022307;28;20061;-90
2023/10/05 15:24:10;;;;;;;5.25;2.10;;;;;;;;;;5024256;28;20050;-90
2023/10/05 15:26:40;;;;;;;5.60;1.52;;;;;;;;;;5025890;28;20050;-93
2023/10/05 15:29:12;;;;;;;6.43;2.13;;;;;;;;;;5025055;28;20382;-90
2023/10/05 15:31:43;;;;;;;4.80;2.27;;;;;;;;;;5022155;28;20116;-90